createdAt,value
2019-03-06T00:01:45.280Z,98697.43
2019-03-06T00:04:16.558Z,98690.48
2019-03-06T00:06:48.435Z,98690.75
2019-03-06T00:09:19.672Z,98688.13
2019-03-06T00:11:50.910Z,98692.85
2019-03-06T00:14:22.140Z,98697.25
2019-03-06T00:16:53.583Z,98692.84
2019-03-06T00:19:25.025Z,98689.47
2019-03-06T00:21:56.594Z,98692.42
2019-03-06T00:24:27.920Z,98690.49
2019-03-06T00:26:59.261Z,98685.66
2019-03-06T00:29:30.601Z,98682.81
2019-03-06T00:32:01.986Z,98680.14
2019-03-06T00:34:33.310Z,98678.50
2019-03-06T00:37:04.622Z,98672.70
2019-03-06T00:39:37.532Z,98679.35
2019-03-06T00:42:08.840Z,98679.85
2019-03-06T00:44:40.157Z,98670.47
2019-03-06T00:47:11.607Z,98675.74
2019-03-06T00:49:43.255Z,98672.08
2019-03-06T00:52:14.651Z,98670.05
2019-03-06T00:54:46.171Z,98677.38
2019-03-06T00:57:17.415Z,98671.81
2019-03-06T00:59:48.903Z,98672.08
2019-03-06T01:02:20.217Z,98669.70
2019-03-06T01:04:51.404Z,98673.97
2019-03-06T01:07:22.639Z,98679.39
2019-03-06T01:09:53.895Z,98687.50
2019-03-06T01:12:25.467Z,98684.28
2019-03-06T01:14:57.789Z,98684.48
2019-03-06T01:17:29.215Z,98688.17
2019-03-06T01:20:00.596Z,98689.42
2019-03-06T01:22:32.252Z,98687.07
2019-03-06T01:25:03.778Z,98689.95
2019-03-06T01:27:35.213Z,98686.32
2019-03-06T01:30:12.529Z,98684.05
2019-03-06T01:32:44.452Z,98683.63
2019-03-06T01:35:24.648Z,98685.25
2019-03-06T01:37:57.575Z,98693.42
2019-03-06T01:40:39.155Z,98696.92
2019-03-06T01:43:17.985Z,98695.30
2019-03-06T01:45:49.460Z,98701.45
2019-03-06T01:48:20.764Z,98699.34
2019-03-06T01:50:52.110Z,98700.86
2019-03-06T01:53:23.477Z,98700.48
2019-03-06T01:55:55.024Z,98705.77
2019-03-06T01:58:26.774Z,98704.91
2019-03-06T02:00:58.096Z,98704.79
2019-03-06T02:03:29.397Z,98703.81
2019-03-06T02:06:00.851Z,98711.93
2019-03-06T02:08:32.374Z,98712.15
2019-03-06T02:11:03.628Z,98715.13
2019-03-06T02:13:34.892Z,98711.31
2019-03-06T02:16:06.258Z,98711.89
2019-03-06T02:18:37.493Z,98707.01
2019-03-06T02:21:08.961Z,98715.66
2019-03-06T02:23:40.274Z,98715.66
2019-03-06T02:26:11.623Z,98712.27
2019-03-06T02:28:43.086Z,98717.52
2019-03-06T02:31:14.475Z,98715.36
2019-03-06T02:33:45.835Z,98713.27
2019-03-06T02:36:17.168Z,98717.22
2019-03-06T02:38:48.487Z,98721.20
2019-03-06T02:41:20.281Z,98721.02
2019-03-06T02:43:51.701Z,98732.15
2019-03-06T02:46:23.142Z,98733.17
2019-03-06T02:48:54.914Z,98735.70
2019-03-06T02:51:26.252Z,98739.23
2019-03-06T02:53:57.735Z,98739.20
2019-03-06T02:56:29.159Z,98739.37
2019-03-06T02:59:02.367Z,98735.94
2019-03-06T03:01:44.407Z,98746.81
2019-03-06T03:04:20.272Z,98748.84
2019-03-06T03:06:53.135Z,98749.92
2019-03-06T03:09:24.521Z,98758.23
2019-03-06T03:11:56.079Z,98762.38
2019-03-06T03:14:27.636Z,98766.53
2019-03-06T03:16:59.013Z,98768.17
2019-03-06T03:19:30.338Z,98761.90
2019-03-06T03:22:01.697Z,98759.61
2019-03-06T03:24:33.119Z,98761.27
2019-03-06T03:27:04.499Z,98768.55
2019-03-06T03:29:35.956Z,98776.34
2019-03-06T03:32:07.284Z,98776.53
2019-03-06T03:34:38.860Z,98779.16
2019-03-06T03:37:10.002Z,98784.97
2019-03-06T03:39:41.359Z,98790.63
2019-03-06T03:42:12.699Z,98797.76
2019-03-06T03:44:44.034Z,98810.89
2019-03-06T03:47:15.202Z,98799.77
2019-03-06T03:49:46.525Z,98802.11
2019-03-06T03:52:17.876Z,98808.06
2019-03-06T03:54:49.224Z,98815.86
2019-03-06T03:57:20.586Z,98825.32
2019-03-06T03:59:51.988Z,98824.50
2019-03-06T04:02:23.225Z,98825.64
2019-03-06T04:04:54.632Z,98826.98
2019-03-06T04:07:26.013Z,98823.66
2019-03-06T04:09:57.438Z,98833.95
2019-03-06T04:12:28.732Z,98825.14
2019-03-06T04:15:01.168Z,98825.33
2019-03-06T04:17:32.466Z,98836.59
2019-03-06T04:20:04.430Z,98845.91
2019-03-06T04:22:35.738Z,98845.25
2019-03-06T04:25:08.321Z,98852.87
2019-03-06T04:27:39.701Z,98855.02
2019-03-06T04:30:16.100Z,98866.83
2019-03-06T04:32:47.288Z,98866.83
2019-03-06T04:35:18.754Z,98866.14
2019-03-06T04:37:51.095Z,98864.65
2019-03-06T04:40:22.495Z,98862.84
2019-03-06T04:42:53.846Z,98857.69
2019-03-06T04:45:25.162Z,98861.67
2019-03-06T04:47:56.619Z,98857.84
2019-03-06T04:50:27.916Z,98869.14
2019-03-06T04:52:59.052Z,98874.30
2019-03-06T04:55:30.355Z,98881.75
2019-03-06T04:58:02.030Z,98880.75
2019-03-06T05:00:33.388Z,98891.91
2019-03-06T05:03:04.844Z,98880.75
2019-03-06T05:05:36.028Z,98894.06
2019-03-06T05:08:07.453Z,98896.20
2019-03-06T05:10:38.793Z,98890.08
2019-03-06T05:13:10.087Z,98891.04
2019-03-06T05:15:41.407Z,98896.20
2019-03-06T05:18:31.412Z,98894.98
2019-03-06T05:21:02.985Z,98900.02
2019-03-06T05:23:34.362Z,98902.92
2019-03-06T05:26:05.789Z,98902.77
2019-03-06T05:28:37.119Z,98900.26
2019-03-06T05:31:08.610Z,98899.20
2019-03-06T05:33:39.999Z,98900.84
2019-03-06T05:36:23.341Z,98900.67
2019-03-06T05:39:09.886Z,98909.31
2019-03-06T05:41:41.342Z,98904.39
2019-03-06T05:44:12.699Z,98918.00
2019-03-06T05:46:44.058Z,98916.59
2019-03-06T05:49:15.817Z,98921.45
2019-03-06T05:51:47.316Z,98915.89
2019-03-06T05:54:21.324Z,98915.17
2019-03-06T05:56:53.851Z,98923.45
2019-03-06T05:59:25.200Z,98925.66
2019-03-06T06:01:56.570Z,98926.03
2019-03-06T06:04:27.995Z,98929.04
2019-03-06T06:06:59.632Z,98925.61
2019-03-06T06:09:31.260Z,98936.06
2019-03-06T06:12:02.895Z,98929.13
2019-03-06T06:14:34.351Z,98934.71
2019-03-06T06:17:05.696Z,98936.14
2019-03-06T06:19:37.508Z,98948.75
2019-03-06T06:22:13.662Z,98948.75
2019-03-06T06:24:45.178Z,98946.05
2019-03-06T06:27:16.619Z,98947.92
2019-03-06T06:29:48.188Z,98949.69
2019-03-06T06:32:19.547Z,98948.36
2019-03-06T06:34:50.909Z,98948.48
2019-03-06T06:37:22.220Z,98944.25
2019-03-06T06:39:53.626Z,98944.66
2019-03-06T06:42:26.080Z,98943.34
2019-03-06T06:44:57.342Z,98948.89
2019-03-06T06:47:28.652Z,98946.86
2019-03-06T06:50:00.139Z,98942.11
2019-03-06T06:52:43.482Z,98944.23
2019-03-06T06:55:18.927Z,98933.92
2019-03-06T06:58:17.274Z,98938.91
2019-03-06T07:01:11.567Z,98938.42
2019-03-06T07:04:09.537Z,98941.27
2019-03-06T07:06:42.443Z,98941.83
2019-03-06T07:09:27.884Z,98943.04
2019-03-06T07:12:03.583Z,98948.34
2019-03-06T07:14:39.119Z,98941.97
2019-03-06T07:17:12.030Z,98943.88
2019-03-06T07:19:53.760Z,98946.80
2019-03-06T07:22:33.183Z,98948.35
2019-03-06T07:25:23.563Z,98949.03
2019-03-06T07:27:59.401Z,98963.52
2019-03-06T07:30:48.465Z,98966.42
2019-03-06T07:33:28.723Z,98972.19
2019-03-06T07:36:17.929Z,98970.28
2019-03-06T07:38:50.536Z,98976.42
2019-03-06T07:41:26.488Z,98981.58
2019-03-06T07:43:59.388Z,98981.04
2019-03-06T07:46:32.355Z,98975.68
2019-03-06T07:49:17.898Z,98986.41
2019-03-06T07:52:02.787Z,98987.07
2019-03-06T07:54:41.911Z,98991.84
2019-03-06T07:57:14.907Z,98992.73
2019-03-06T07:59:46.761Z,98990.94
2019-03-06T08:02:24.300Z,98995.59
2019-03-06T08:04:55.933Z,98998.77
2019-03-06T08:07:26.970Z,98997.03
2019-03-06T08:09:58.109Z,99013.56
2019-03-06T08:12:33.892Z,99011.71
2019-03-06T08:15:09.483Z,99007.78
2019-03-06T08:17:42.588Z,99009.61
2019-03-06T08:20:32.006Z,99012.20
2019-03-06T08:23:16.835Z,99017.39
2019-03-06T08:25:49.917Z,99015.84
2019-03-06T08:28:21.508Z,99016.18
2019-03-06T08:30:54.673Z,99015.64
2019-03-06T08:33:26.689Z,99019.65
2019-03-06T08:35:58.135Z,99012.27
2019-03-06T08:38:29.439Z,99013.91
2019-03-06T08:41:04.516Z,99019.54
2019-03-06T08:43:33.794Z,99020.02
2019-03-06T08:46:18.840Z,99022.97
2019-03-06T08:48:51.877Z,99015.13
2019-03-06T08:51:24.887Z,99021.17
2019-03-06T08:54:03.824Z,99023.59
2019-03-06T08:56:42.695Z,99019.50
2019-03-06T08:59:15.732Z,99014.61
2019-03-06T09:02:00.458Z,99018.10
2019-03-06T09:04:37.143Z,99027.22
2019-03-06T09:07:18.962Z,99028.97
2019-03-06T09:10:06.951Z,99017.05
2019-03-06T09:12:58.053Z,99017.41
2019-03-06T09:15:33.740Z,99020.09
2019-03-06T09:18:22.009Z,99017.55
2019-03-06T09:20:54.945Z,99027.83
2019-03-06T09:23:30.652Z,99034.13
2019-03-06T09:26:06.405Z,99027.61
2019-03-06T09:29:01.007Z,99024.06
2019-03-06T09:31:36.161Z,99022.55
2019-03-06T09:34:09.186Z,99032.06
2019-03-06T09:36:44.941Z,99022.94
2019-03-06T09:39:33.792Z,99036.13
2019-03-06T09:42:06.688Z,99035.88
2019-03-06T09:44:42.655Z,99027.10
2019-03-06T09:47:15.624Z,99035.14
2019-03-06T09:49:51.212Z,99037.84
2019-03-06T09:52:25.122Z,99040.05
2019-03-06T09:55:11.512Z,99037.98
2019-03-06T09:57:47.560Z,99041.92
2019-03-06T10:00:29.275Z,99049.33
2019-03-06T10:03:05.148Z,99055.80
2019-03-06T10:05:50.179Z,99051.17
2019-03-06T10:08:32.013Z,99057.27
2019-03-06T10:11:17.201Z,99054.80
2019-03-06T10:14:02.428Z,99057.02
2019-03-06T10:16:48.654Z,99053.16
2019-03-06T10:19:18.502Z,99066.20
2019-03-06T10:21:49.853Z,99066.75
2019-03-06T10:24:21.207Z,99061.67
2019-03-06T10:26:52.564Z,99054.19
2019-03-06T10:29:24.155Z,99046.38
2019-03-06T10:31:55.510Z,99052.67
2019-03-06T10:34:27.067Z,99056.14
2019-03-06T10:36:58.386Z,99057.27
2019-03-06T10:39:29.863Z,99059.66
2019-03-06T10:42:01.334Z,99049.49
2019-03-06T10:44:32.779Z,99061.08
2019-03-06T10:47:04.228Z,99061.05
2019-03-06T10:49:35.692Z,99060.64
2019-03-06T10:52:06.946Z,99076.99
2019-03-06T10:54:44.940Z,99076.70
2019-03-06T10:57:20.430Z,99071.24
2019-03-06T10:59:54.899Z,99075.94
2019-03-06T11:02:26.180Z,99076.28
2019-03-06T11:04:59.144Z,99073.52
2019-03-06T11:07:30.479Z,99075.08
2019-03-06T11:10:01.722Z,99064.95
2019-03-06T11:12:33.161Z,99074.39
2019-03-06T11:15:08.113Z,99076.31
2019-03-06T11:17:39.421Z,99072.95
2019-03-06T11:20:20.376Z,99075.86
2019-03-06T11:22:54.293Z,99065.56
2019-03-06T11:25:29.074Z,99080.27
2019-03-06T11:28:08.287Z,99071.08
2019-03-06T11:30:48.429Z,99070.77
2019-03-06T11:33:22.604Z,99074.77
2019-03-06T11:35:58.833Z,99071.11
2019-03-06T11:38:30.191Z,99081.04
2019-03-06T11:41:01.956Z,99062.25
2019-03-06T11:43:33.499Z,99069.77
2019-03-06T11:46:06.013Z,99069.07
2019-03-06T11:48:37.517Z,99059.10
2019-03-06T11:51:09.045Z,99064.41
2019-03-06T11:53:40.383Z,99066.56
2019-03-06T11:56:11.872Z,99075.12
2019-03-06T11:58:43.387Z,99071.08
2019-03-06T12:01:19.825Z,99079.30
2019-03-06T12:03:51.443Z,99066.39
2019-03-06T12:06:23.215Z,99079.92
2019-03-06T12:08:54.585Z,99073.58
2019-03-06T12:11:25.854Z,99081.95
2019-03-06T12:13:57.348Z,99074.19
2019-03-06T12:16:28.696Z,99078.77
2019-03-06T12:19:00.041Z,99076.86
2019-03-06T12:21:32.547Z,99075.98
2019-03-06T12:24:03.941Z,99072.84
2019-03-06T12:26:35.188Z,99084.41
2019-03-06T12:29:06.631Z,99084.83
2019-03-06T12:31:37.952Z,99094.83
2019-03-06T12:34:09.283Z,99083.38
2019-03-06T12:36:40.635Z,99087.75
2019-03-06T12:39:12.029Z,99083.80
2019-03-06T12:41:45.016Z,99081.55
2019-03-06T12:44:16.392Z,99084.69
2019-03-06T12:46:47.708Z,99094.34
2019-03-06T12:49:19.173Z,99097.27
2019-03-06T12:51:54.326Z,99092.82
2019-03-06T12:54:23.641Z,99086.14
2019-03-06T12:56:55.010Z,99096.63
2019-03-06T12:59:26.299Z,99096.61
2019-03-06T13:01:58.018Z,99095.45
2019-03-06T13:04:29.605Z,99102.83
2019-03-06T13:07:01.250Z,99110.01
2019-03-06T13:09:32.984Z,99112.27
2019-03-06T13:12:05.322Z,99108.95
2019-03-06T13:14:36.991Z,99120.23
2019-03-06T13:17:08.363Z,99121.05
2019-03-06T13:19:51.494Z,99123.48
2019-03-06T13:22:32.290Z,99131.83
2019-03-06T13:25:03.808Z,99124.98
2019-03-06T13:27:35.278Z,99136.05
2019-03-06T13:30:09.918Z,99133.48
2019-03-06T13:32:59.055Z,99145.19
2019-03-06T13:35:33.607Z,99153.28
2019-03-06T13:38:04.883Z,99144.56
2019-03-06T13:40:36.368Z,99150.97
2019-03-06T13:43:07.656Z,99158.52
2019-03-06T13:45:39.074Z,99161.83
2019-03-06T13:48:10.397Z,99162.16
2019-03-06T13:50:41.740Z,99171.79
2019-03-06T13:53:20.375Z,99166.38
2019-03-06T13:55:52.255Z,99163.53
2019-03-06T13:58:23.536Z,99168.27
2019-03-06T14:00:55.393Z,99172.92
2019-03-06T14:03:26.234Z,99174.14
2019-03-06T14:05:58.385Z,99172.53
2019-03-06T14:08:29.816Z,99184.19
2019-03-06T14:11:01.277Z,99190.63
2019-03-06T14:13:32.618Z,99189.69
2019-03-06T14:16:04.434Z,99199.48
2019-03-06T14:18:35.847Z,99198.34
2019-03-06T14:21:06.925Z,99202.38
2019-03-06T14:23:38.241Z,99207.95
2019-03-06T14:26:09.689Z,99211.92
2019-03-06T14:28:40.991Z,99208.58
2019-03-06T14:31:12.976Z,99214.63
2019-03-06T14:33:44.416Z,99216.45
2019-03-06T14:36:15.792Z,99218.63
2019-03-06T14:38:47.059Z,99227.20
2019-03-06T14:41:18.434Z,99220.98
2019-03-06T14:43:49.758Z,99230.67
2019-03-06T14:46:21.279Z,99231.76
2019-03-06T14:48:53.816Z,99237.44
2019-03-06T14:51:25.165Z,99239.97
2019-03-06T14:53:56.584Z,99238.18
2019-03-06T14:56:28.244Z,99243.48
2019-03-06T14:59:00.135Z,99252.06
2019-03-06T15:01:31.595Z,99243.31
2019-03-06T15:04:03.062Z,99253.92
2019-03-06T15:06:35.211Z,99262.31
2019-03-06T15:09:22.900Z,99258.10
2019-03-06T15:11:54.285Z,99264.89
2019-03-06T15:14:38.675Z,99270.67
2019-03-06T15:17:22.517Z,99271.11
2019-03-06T15:19:54.073Z,99271.09
2019-03-06T15:22:26.534Z,99267.34
2019-03-06T15:24:57.901Z,99279.09
2019-03-06T15:27:29.291Z,99278.72
2019-03-06T15:30:00.939Z,99283.02
2019-03-06T15:32:34.160Z,99282.55
2019-03-06T15:35:05.836Z,99287.16
2019-03-06T15:37:37.278Z,99292.35
2019-03-06T15:40:22.362Z,99299.61
2019-03-06T15:42:54.084Z,99308.38
2019-03-06T15:45:26.916Z,99311.06
2019-03-06T15:47:59.451Z,99318.78
2019-03-06T15:50:31.034Z,99314.86
2019-03-06T15:53:02.373Z,99323.42
2019-03-06T15:55:34.846Z,99324.76
2019-03-06T15:58:06.355Z,99330.72
2019-03-06T16:00:46.208Z,99339.52
2019-03-06T16:03:13.956Z,99338.67
2019-03-06T16:05:45.320Z,99343.24
2019-03-06T16:08:16.796Z,99349.79
2019-03-06T16:10:48.557Z,99355.58
2019-03-06T16:13:20.415Z,99360.38
2019-03-06T16:15:51.686Z,99366.19
2019-03-06T16:18:25.846Z,99371.36
2019-03-06T16:20:57.332Z,99373.28
2019-03-06T16:23:32.241Z,99376.37
2019-03-06T16:26:12.484Z,99382.94
2019-03-06T16:28:48.891Z,99389.84
2019-03-06T16:31:30.637Z,99384.34
2019-03-06T16:34:04.601Z,99387.22
2019-03-06T16:36:37.564Z,99393.47
2019-03-06T16:39:08.925Z,99399.34
2019-03-06T16:41:42.195Z,99401.33
2019-03-06T16:44:13.651Z,99403.27
2019-03-06T16:46:44.914Z,99405.69
2019-03-06T16:49:16.261Z,99414.87
2019-03-06T16:51:49.269Z,99417.23
2019-03-06T16:54:27.589Z,99415.63
2019-03-06T16:57:05.815Z,99414.91
2019-03-06T16:59:40.063Z,99426.98
2019-03-06T17:02:14.484Z,99425.84
2019-03-06T17:04:47.432Z,99434.42
2019-03-06T17:07:18.931Z,99433.51
2019-03-06T17:09:50.303Z,99435.47
2019-03-06T17:12:29.159Z,99435.39
2019-03-06T17:15:00.871Z,99433.70
2019-03-06T17:17:32.540Z,99437.30
2019-03-06T17:20:05.046Z,99438.98
2019-03-06T17:22:36.413Z,99438.30
2019-03-06T17:25:08.058Z,99438.16
2019-03-06T17:27:39.376Z,99430.02
2019-03-06T17:30:13.581Z,99438.92
2019-03-06T17:32:53.870Z,99435.92
2019-03-06T17:35:25.669Z,99441.50
2019-03-06T17:37:56.926Z,99444.67
2019-03-06T17:40:29.259Z,99444.52
2019-03-06T17:43:01.813Z,99447.55
2019-03-06T17:45:33.217Z,99442.91
2019-03-06T17:48:05.196Z,99445.59
2019-03-06T17:50:36.731Z,99451.33
2019-03-06T17:53:09.035Z,99460.63
2019-03-06T17:55:40.534Z,99462.06
2019-03-06T17:58:11.945Z,99459.56
2019-03-06T18:00:44.912Z,99464.84
2019-03-06T18:03:18.010Z,99471.17
2019-03-06T18:05:50.881Z,99469.13
2019-03-06T18:08:22.298Z,99473.16
2019-03-06T18:10:53.743Z,99473.82
2019-03-06T18:13:25.305Z,99482.23
2019-03-06T18:15:56.678Z,99481.17
2019-03-06T18:18:29.215Z,99481.55
2019-03-06T18:21:00.807Z,99485.58
2019-03-06T18:23:34.386Z,99482.47
2019-03-06T18:26:06.235Z,99488.69
2019-03-06T18:28:37.699Z,99498.96
2019-03-06T18:31:09.014Z,99498.66
2019-03-06T18:33:40.486Z,99504.80
2019-03-06T18:36:13.023Z,99499.63
2019-03-06T18:38:44.507Z,99502.43
2019-03-06T18:41:15.891Z,99513.06
2019-03-06T18:43:50.248Z,99514.83
2019-03-06T18:46:23.334Z,99522.80
2019-03-06T18:48:54.584Z,99514.77
2019-03-06T18:51:26.077Z,99517.14
2019-03-06T18:53:57.516Z,99521.20
2019-03-06T18:56:28.888Z,99522.86
2019-03-06T18:59:00.281Z,99528.58
2019-03-06T19:01:31.594Z,99531.19
2019-03-06T19:04:02.968Z,99537.20
2019-03-06T19:06:37.515Z,99540.91
2019-03-06T19:09:08.891Z,99549.73
2019-03-06T19:11:40.591Z,99549.42
2019-03-06T19:14:21.957Z,99551.24
2019-03-06T19:16:53.600Z,99552.89
2019-03-06T19:19:24.982Z,99557.09
2019-03-06T19:21:56.330Z,99559.02
2019-03-06T19:24:34.455Z,99565.70
2019-03-06T19:27:06.183Z,99578.16
2019-03-06T19:29:37.628Z,99579.08
2019-03-06T19:32:09.002Z,99578.72
2019-03-06T19:34:40.427Z,99596.18
2019-03-06T19:37:11.938Z,99590.16
2019-03-06T19:39:43.233Z,99593.19
2019-03-06T19:42:14.550Z,99590.70
2019-03-06T19:44:45.885Z,99593.11
2019-03-06T19:47:17.435Z,99593.11
2019-03-06T19:49:48.697Z,99599.17
2019-03-06T19:52:20.041Z,99598.45
2019-03-06T19:54:51.468Z,99605.14
2019-03-06T19:57:22.925Z,99616.52
2019-03-06T19:59:54.561Z,99619.22
2019-03-06T20:02:26.030Z,99618.59
2019-03-06T20:04:57.389Z,99633.26
2019-03-06T20:07:28.568Z,99635.97
2019-03-06T20:09:59.964Z,99628.95
2019-03-06T20:12:32.593Z,99633.97
2019-03-06T20:15:05.179Z,99632.98
2019-03-06T20:17:36.535Z,99636.98
2019-03-06T20:20:10.504Z,99632.66
2019-03-06T20:22:41.858Z,99628.98
2019-03-06T20:25:13.582Z,99628.31
2019-03-06T20:27:45.162Z,99634.34
2019-03-06T20:30:18.491Z,99638.51
2019-03-06T20:32:49.840Z,99642.02
2019-03-06T20:35:22.610Z,99644.34
2019-03-06T20:37:53.999Z,99646.36
2019-03-06T20:40:25.455Z,99641.83
2019-03-06T20:42:57.043Z,99648.66
2019-03-06T20:45:28.465Z,99656.97
2019-03-06T20:47:59.748Z,99665.02
2019-03-06T20:50:31.295Z,99673.33
2019-03-06T20:53:02.508Z,99675.33
2019-03-06T20:55:33.817Z,99677.27
2019-03-06T20:58:05.560Z,99669.82
2019-03-06T21:00:36.904Z,99678.56
2019-03-06T21:03:08.309Z,99687.21
2019-03-06T21:05:39.676Z,99690.21
2019-03-06T21:08:11.176Z,99691.22
2019-03-06T21:10:43.587Z,99697.47
2019-03-06T21:13:16.534Z,99706.05
2019-03-06T21:15:48.148Z,99703.98
2019-03-06T21:18:19.621Z,99702.28
2019-03-06T21:20:52.145Z,99692.64
2019-03-06T21:23:23.374Z,99702.73
2019-03-06T21:25:54.822Z,99720.53
2019-03-06T21:28:26.136Z,99731.72
2019-03-06T21:30:57.495Z,99734.92
2019-03-06T21:33:28.850Z,99742.13
2019-03-06T21:36:01.895Z,99745.21
2019-03-06T21:38:33.256Z,99757.14
2019-03-06T21:41:04.749Z,99767.38
2019-03-06T21:43:36.214Z,99782.70
2019-03-06T21:46:07.542Z,99783.08
2019-03-06T21:48:39.020Z,99783.28
2019-03-06T21:51:10.501Z,99787.44
2019-03-06T21:53:41.850Z,99782.98
2019-03-06T21:56:13.186Z,99788.05
2019-03-06T21:58:44.518Z,99785.39
2019-03-06T22:01:16.331Z,99783.58
2019-03-06T22:03:47.650Z,99783.22
2019-03-06T22:06:18.965Z,99786.66
2019-03-06T22:08:50.435Z,99781.13
2019-03-06T22:11:21.858Z,99790.83
2019-03-06T22:13:53.573Z,99794.34
2019-03-06T22:16:24.956Z,99794.69
2019-03-06T22:18:56.174Z,99787.84
2019-03-06T22:21:27.376Z,99795.09
2019-03-06T22:23:58.658Z,99799.55
2019-03-06T22:26:30.144Z,99805.09
2019-03-06T22:29:01.720Z,99811.08
2019-03-06T22:31:32.955Z,99807.87
2019-03-06T22:34:04.429Z,99808.94
2019-03-06T22:36:35.740Z,99805.20
2019-03-06T22:39:08.303Z,99810.13
2019-03-06T22:41:39.774Z,99807.47
2019-03-06T22:44:11.073Z,99806.92
2019-03-06T22:46:42.331Z,99818.92
2019-03-06T22:49:13.718Z,99819.14
2019-03-06T22:51:45.617Z,99815.98
2019-03-06T22:54:17.010Z,99825.95
2019-03-06T22:56:48.476Z,99829.78
2019-03-06T22:59:19.773Z,99830.48
2019-03-06T23:01:53.163Z,99834.52
2019-03-06T23:04:24.280Z,99837.23
2019-03-06T23:06:55.632Z,99841.56
2019-03-06T23:09:27.106Z,99849.13
2019-03-06T23:11:58.507Z,99852.73
2019-03-06T23:14:29.961Z,99856.74
2019-03-06T23:17:01.433Z,99857.98
2019-03-06T23:19:32.856Z,99862.98
2019-03-06T23:22:05.713Z,99870.03
2019-03-06T23:24:37.047Z,99861.02
2019-03-06T23:27:09.871Z,99866.75
2019-03-06T23:29:41.318Z,99871.00
2019-03-06T23:32:12.728Z,99876.17
2019-03-06T23:34:44.059Z,99874.51
2019-03-06T23:37:15.364Z,99874.35
2019-03-06T23:39:46.895Z,99867.94
2019-03-06T23:42:18.223Z,99874.75
2019-03-06T23:44:49.483Z,99874.72
2019-03-06T23:47:20.847Z,99866.19
2019-03-06T23:49:52.155Z,99867.25
2019-03-06T23:52:25.095Z,99886.58
2019-03-06T23:54:56.558Z,99901.81
2019-03-06T23:57:27.906Z,99913.89
2019-03-06T23:59:59.281Z,99909.56
